Marlin, Washington
Current Conditions -  °F | °C
As of 3:52 AM on Thursday 23 Oct 2014 (Local Time) from KMWH Reporting Station
Overcast Overcast  
Wind Chill: 54°   Ceiling: 9500
Heat Index: 54°   Visibility: 9mi
Dew Point: 46°   Wind: 7mph
Humidity: 75%   Direction: 280°W
Pressure: 29.74"   Gusts: NA
Location:  47.32°N, 119.01°W
Report Text: KMWH 231052Z AUTO 28006KT 9SM OVC095 12/08 A2974 RMK AO2 SLP072 T01220078 TSNO
Loading
Personal Weather Stations






























Interactive Weather Map
Tropical Storm Tracking
New forecast layout! Learn more

10-Day Weather Forecast

Advertisements
Track Severe Weather on mobile